Villena, Spain
Current Conditions -  °F | °C
As of 11:30 PM on Wednesday 22 Oct 2014 (Local Time) from LEAL Reporting Station
Few Clouds Few Clouds  
Wind Chill: 66°   Ceiling: Unl
Heat Index: 66°   Visibility: 6mi
Dew Point: 57°   Wind: 3mph
Humidity: 73%   Direction: 310°NW
Pressure: 30.24"   Gusts: NA
Location:  38.64°N, 0.87°W
Report Text: LEAL 222130Z 31003KT 9999 FEW020 19/14 Q1024 NOSIG
Loading
Personal Weather Stations






























Interactive Weather Map
Tropical Storm Tracking
New forecast layout! Learn more

10-Day Weather Forecast

Advertisements
Track Severe Weather on mobile